createdAt,value
2022-09-30T00:01:41.831Z,99.90
2022-09-30T00:04:29.773Z,99.90
2022-09-30T00:07:18.979Z,99.90
2022-09-30T00:10:07.648Z,99.90
2022-09-30T00:12:55.502Z,99.90
2022-09-30T00:15:47.534Z,99.90
2022-09-30T00:18:35.452Z,99.90
2022-09-30T00:21:23.552Z,99.90
2022-09-30T00:24:12.815Z,99.90
2022-09-30T00:27:00.719Z,99.90
2022-09-30T00:29:48.748Z,99.90
2022-09-30T00:32:36.748Z,99.90
2022-09-30T00:35:25.445Z,99.90
2022-09-30T00:38:13.297Z,99.90
2022-09-30T00:41:03.483Z,99.90
2022-09-30T00:43:53.529Z,99.90
2022-09-30T00:46:44.831Z,99.90
2022-09-30T00:49:33.028Z,99.90
2022-09-30T00:52:20.951Z,99.90
2022-09-30T00:55:11.116Z,99.90
2022-09-30T00:58:02.866Z,99.90
2022-09-30T01:00:51.969Z,99.90
2022-09-30T01:03:42.241Z,99.90
2022-09-30T01:06:30.271Z,99.90
2022-09-30T01:09:18.826Z,99.90
2022-09-30T01:12:07.391Z,99.90
2022-09-30T01:14:58.137Z,99.90
2022-09-30T01:17:50.442Z,99.90
2022-09-30T01:20:48.486Z,99.90
2022-09-30T01:23:58.020Z,99.90
2022-09-30T01:26:50.591Z,99.90
2022-09-30T01:30:04.641Z,99.90
2022-09-30T01:33:04.856Z,99.90
2022-09-30T01:36:06.224Z,99.90
2022-09-30T01:38:56.763Z,99.90
2022-09-30T01:41:46.849Z,99.90
2022-09-30T01:44:36.424Z,99.90
2022-09-30T01:47:26.448Z,99.90
2022-09-30T01:50:18.617Z,99.90
2022-09-30T01:53:09.492Z,99.90
2022-09-30T01:56:00.503Z,99.90
2022-09-30T01:58:53.182Z,99.90
2022-09-30T02:01:46.810Z,99.90
2022-09-30T02:04:37.099Z,99.90
2022-09-30T02:07:27.805Z,99.90
2022-09-30T02:10:17.768Z,99.90
2022-09-30T02:13:08.398Z,99.90
2022-09-30T02:15:58.157Z,99.90
2022-09-30T02:18:48.765Z,99.90
2022-09-30T02:21:39.534Z,99.90
2022-09-30T02:24:32.118Z,99.90
2022-09-30T02:27:22.223Z,99.90
2022-09-30T02:30:11.889Z,99.90
2022-09-30T02:33:01.520Z,99.90
2022-09-30T02:35:51.529Z,99.90
2022-09-30T02:38:42.278Z,99.90
2022-09-30T02:41:34.551Z,99.90
2022-09-30T02:44:22.512Z,99.90
2022-09-30T02:47:13.956Z,99.90
2022-09-30T02:50:03.192Z,99.90
2022-09-30T02:52:57.131Z,99.90
2022-09-30T02:55:52.786Z,99.90
2022-09-30T02:58:43.438Z,99.90
2022-09-30T03:01:32.151Z,99.90
2022-09-30T03:04:21.951Z,99.90
2022-09-30T03:07:10.632Z,99.90
2022-09-30T03:09:59.151Z,99.90
2022-09-30T03:12:58.218Z,99.90
2022-09-30T03:15:55.296Z,99.90
2022-09-30T03:18:52.849Z,99.90
2022-09-30T03:21:47.522Z,99.90
2022-09-30T03:24:47.152Z,99.90
2022-09-30T03:27:37.964Z,99.90
2022-09-30T03:30:27.004Z,99.90
2022-09-30T03:33:20.114Z,99.90
2022-09-30T03:36:09.895Z,99.90
2022-09-30T03:39:02.082Z,99.90
2022-09-30T03:41:54.001Z,99.90
2022-09-30T03:44:43.261Z,99.90
2022-09-30T03:47:32.495Z,99.90
2022-09-30T03:50:22.898Z,99.90
2022-09-30T03:53:12.827Z,99.90
2022-09-30T03:56:00.695Z,99.90
2022-09-30T03:58:48.676Z,99.90
2022-09-30T04:01:36.572Z,99.90
2022-09-30T04:04:24.651Z,99.90
2022-09-30T04:07:14.230Z,99.90
2022-09-30T04:10:02.445Z,99.90
2022-09-30T04:12:50.281Z,99.90
2022-09-30T04:15:38.175Z,99.90
2022-09-30T04:18:26.064Z,99.90
2022-09-30T04:21:14.782Z,99.90
2022-09-30T04:24:04.278Z,99.90
2022-09-30T04:26:52.212Z,99.90
2022-09-30T04:29:40.102Z,99.90
2022-09-30T04:32:28.866Z,99.90
2022-09-30T04:35:17.215Z,99.90
2022-09-30T04:38:07.271Z,99.90
2022-09-30T04:40:56.978Z,99.90
2022-09-30T04:43:46.887Z,99.90
2022-09-30T04:46:36.753Z,99.90
2022-09-30T04:49:24.843Z,99.90
2022-09-30T04:52:13.237Z,99.90
2022-09-30T04:55:01.143Z,99.90
2022-09-30T04:57:50.496Z,99.90
2022-09-30T05:00:38.549Z,99.90
2022-09-30T05:03:26.443Z,99.90
2022-09-30T05:06:16.655Z,99.90
2022-09-30T05:09:04.859Z,99.90
2022-09-30T05:11:53.259Z,99.90
2022-09-30T05:14:42.720Z,99.90
2022-09-30T05:17:31.266Z,99.90
2022-09-30T05:20:21.374Z,99.90
2022-09-30T05:23:09.490Z,99.90
2022-09-30T05:25:57.654Z,99.90
2022-09-30T05:28:45.506Z,99.90
2022-09-30T05:31:34.921Z,99.90
2022-09-30T05:34:22.976Z,99.90
2022-09-30T05:37:10.973Z,99.90
2022-09-30T05:39:59.274Z,99.90
2022-09-30T05:42:47.461Z,99.90
2022-09-30T05:45:35.444Z,99.90
2022-09-30T05:48:25.638Z,99.90
2022-09-30T05:51:13.842Z,99.90
2022-09-30T05:54:01.770Z,99.90
2022-09-30T05:56:49.650Z,99.90
2022-09-30T05:59:37.889Z,99.90
2022-09-30T06:02:26.018Z,99.90
2022-09-30T06:05:15.366Z,99.90
2022-09-30T06:08:03.628Z,99.90
2022-09-30T06:10:51.665Z,99.90
2022-09-30T06:13:40.249Z,99.90
2022-09-30T06:16:28.390Z,99.90
2022-09-30T06:19:16.459Z,99.90
2022-09-30T06:22:05.941Z,99.90
2022-09-30T06:24:55.480Z,99.90
2022-09-30T06:27:47.053Z,99.90
2022-09-30T06:30:35.597Z,99.90
2022-09-30T06:33:23.939Z,99.90
2022-09-30T06:36:12.068Z,99.90
2022-09-30T06:39:02.235Z,99.90
2022-09-30T06:41:50.265Z,99.90
2022-09-30T06:44:48.195Z,99.90
2022-09-30T06:47:41.904Z,99.90
2022-09-30T06:50:30.686Z,99.90
2022-09-30T06:53:18.577Z,99.90
2022-09-30T06:56:08.242Z,99.90
2022-09-30T06:58:57.124Z,99.90
2022-09-30T07:01:45.514Z,99.90
2022-09-30T07:04:33.461Z,99.90
2022-09-30T07:07:22.204Z,99.90
2022-09-30T07:10:10.876Z,99.90
2022-09-30T07:13:02.458Z,99.90
2022-09-30T07:15:51.266Z,99.90
2022-09-30T07:18:39.623Z,99.90
2022-09-30T07:21:27.560Z,99.90
2022-09-30T07:24:15.456Z,99.90
2022-09-30T07:27:03.363Z,99.90
2022-09-30T07:30:10.459Z,99.90
2022-09-30T07:33:00.524Z,99.90
2022-09-30T07:35:52.281Z,99.90
2022-09-30T07:38:42.405Z,99.90
2022-09-30T07:41:30.444Z,99.90
2022-09-30T07:44:18.362Z,99.90
2022-09-30T07:47:07.610Z,99.90
2022-09-30T07:49:55.671Z,99.90
2022-09-30T07:52:43.595Z,99.90
2022-09-30T07:55:31.647Z,99.90
2022-09-30T07:58:19.747Z,99.90
2022-09-30T08:01:08.147Z,99.90
2022-09-30T08:03:58.523Z,99.90
2022-09-30T08:06:47.651Z,99.90
2022-09-30T08:09:35.927Z,99.90
2022-09-30T08:12:23.881Z,99.90
2022-09-30T08:15:11.932Z,99.90
2022-09-30T08:17:59.819Z,99.90
2022-09-30T08:20:49.070Z,99.90
2022-09-30T08:23:36.953Z,99.90
2022-09-30T08:26:25.163Z,99.90
2022-09-30T08:29:20.357Z,99.90
2022-09-30T08:32:13.172Z,99.90
2022-09-30T08:35:01.112Z,99.90
2022-09-30T08:37:51.577Z,99.90
2022-09-30T08:40:47.736Z,99.90
2022-09-30T08:43:41.293Z,99.90
2022-09-30T08:46:34.033Z,99.90
2022-09-30T08:49:33.914Z,99.90
2022-09-30T08:52:30.710Z,99.90
2022-09-30T08:55:27.796Z,99.90
2022-09-30T08:58:17.624Z,99.90
2022-09-30T09:01:07.966Z,99.90
2022-09-30T09:03:56.094Z,99.90
2022-09-30T09:06:52.748Z,99.90
2022-09-30T09:09:45.754Z,99.90
2022-09-30T09:12:43.613Z,99.90
2022-09-30T09:15:36.429Z,99.90
2022-09-30T09:18:35.263Z,99.90
2022-09-30T09:21:25.026Z,99.90
2022-09-30T09:24:15.876Z,99.90
2022-09-30T09:27:13.687Z,99.90
2022-09-30T09:30:07.650Z,99.90
2022-09-30T09:32:57.202Z,99.90
2022-09-30T09:35:49.615Z,99.90
2022-09-30T09:38:42.546Z,99.90
2022-09-30T09:41:34.432Z,99.90
2022-09-30T09:44:25.914Z,99.90
2022-09-30T09:47:17.041Z,99.90
2022-09-30T09:50:05.979Z,99.90
2022-09-30T09:53:01.062Z,99.90
2022-09-30T09:55:49.532Z,99.90
2022-09-30T09:58:37.481Z,99.90
2022-09-30T10:01:33.366Z,99.90
2022-09-30T10:04:26.274Z,99.90
2022-09-30T10:07:15.921Z,99.90
2022-09-30T10:10:08.640Z,99.90
2022-09-30T10:12:57.240Z,99.90
2022-09-30T10:15:45.312Z,99.90
2022-09-30T10:18:33.856Z,99.90
2022-09-30T10:21:23.882Z,99.90
2022-09-30T10:24:19.766Z,99.90
2022-09-30T10:27:26.944Z,99.90
2022-09-30T10:30:14.879Z,99.90
2022-09-30T10:33:04.373Z,99.90
2022-09-30T10:36:02.555Z,99.90
2022-09-30T10:38:56.253Z,99.90
2022-09-30T10:41:44.197Z,99.90
2022-09-30T10:44:32.179Z,99.90
2022-09-30T10:47:21.764Z,99.90
2022-09-30T10:50:12.966Z,99.90
2022-09-30T10:53:02.725Z,99.90
2022-09-30T10:55:54.214Z,99.90
2022-09-30T10:58:45.347Z,99.90
2022-09-30T11:01:36.361Z,99.90
2022-09-30T11:04:27.322Z,99.90
2022-09-30T11:07:18.115Z,99.90
2022-09-30T11:10:08.752Z,99.90
2022-09-30T11:13:03.040Z,99.90
2022-09-30T11:15:57.329Z,99.90
2022-09-30T11:18:46.250Z,99.90
2022-09-30T11:21:36.499Z,99.90
2022-09-30T11:24:29.661Z,99.90
2022-09-30T11:27:20.427Z,99.90
2022-09-30T11:30:13.436Z,99.90
2022-09-30T11:33:07.409Z,99.90
2022-09-30T11:35:57.508Z,99.90
2022-09-30T11:39:02.234Z,99.90
2022-09-30T11:41:53.026Z,99.90
2022-09-30T11:44:43.689Z,99.90
2022-09-30T11:47:41.925Z,99.90
2022-09-30T11:50:33.715Z,99.90
2022-09-30T11:53:26.017Z,99.90
2022-09-30T11:56:20.478Z,99.90
2022-09-30T11:59:14.495Z,99.90
2022-09-30T12:02:05.108Z,99.90
2022-09-30T12:04:57.879Z,99.90
2022-09-30T12:07:47.168Z,99.90
2022-09-30T12:10:36.076Z,99.90
2022-09-30T12:13:26.688Z,99.90
2022-09-30T12:16:17.410Z,99.90
2022-09-30T12:19:13.318Z,99.90
2022-09-30T12:22:05.138Z,99.90
2022-09-30T12:24:53.091Z,99.90
2022-09-30T12:27:44.123Z,99.90
2022-09-30T12:30:31.368Z,99.90
2022-09-30T12:33:34.183Z,99.90
2022-09-30T12:36:27.588Z,99.90
2022-09-30T12:39:35.681Z,99.90
2022-09-30T12:42:42.175Z,99.90
2022-09-30T12:45:55.087Z,99.90
2022-09-30T12:48:45.647Z,99.90
2022-09-30T12:51:35.004Z,99.90
2022-09-30T12:54:25.570Z,99.90
2022-09-30T12:57:19.642Z,99.90
2022-09-30T13:00:14.819Z,99.90
2022-09-30T13:03:05.265Z,99.90
2022-09-30T13:05:54.475Z,99.90
2022-09-30T13:08:44.127Z,99.90
2022-09-30T13:11:37.309Z,99.90
2022-09-30T13:14:33.676Z,99.90
2022-09-30T13:17:27.016Z,99.90
2022-09-30T13:20:33.755Z,99.90
2022-09-30T13:23:36.352Z,99.90
2022-09-30T13:26:42.215Z,99.90
2022-09-30T13:29:40.328Z,99.90
2022-09-30T13:32:32.748Z,99.90
2022-09-30T13:35:31.683Z,99.90
2022-09-30T13:38:20.399Z,99.90
2022-09-30T13:41:19.588Z,99.90
2022-09-30T13:44:10.278Z,99.90
2022-09-30T13:47:01.782Z,99.90
2022-09-30T13:49:53.404Z,99.90
2022-09-30T13:52:42.751Z,99.90
2022-09-30T13:55:34.669Z,99.90
2022-09-30T13:58:36.240Z,99.90
2022-09-30T14:01:28.849Z,99.90
2022-09-30T14:04:27.011Z,99.90
2022-09-30T14:07:18.332Z,99.90
2022-09-30T14:10:15.997Z,99.90
2022-09-30T14:13:11.396Z,99.90
2022-09-30T14:16:06.939Z,99.90
2022-09-30T14:19:13.926Z,99.90
2022-09-30T14:22:05.631Z,99.90
2022-09-30T14:24:53.824Z,99.90
2022-09-30T14:27:49.412Z,99.90
2022-09-30T14:30:40.320Z,99.90
2022-09-30T14:33:31.439Z,99.90
2022-09-30T14:36:21.785Z,99.90
2022-09-30T14:39:15.601Z,99.90
2022-09-30T14:42:03.674Z,99.90
2022-09-30T14:44:52.095Z,99.90
2022-09-30T14:47:40.668Z,99.90
2022-09-30T14:50:31.206Z,99.90
2022-09-30T14:53:26.387Z,99.90
2022-09-30T14:56:20.805Z,99.90
2022-09-30T14:59:16.239Z,99.90
2022-09-30T15:02:12.222Z,99.90
2022-09-30T15:05:01.695Z,99.90
2022-09-30T15:07:49.788Z,99.90
2022-09-30T15:10:38.051Z,99.90
2022-09-30T15:13:28.759Z,99.90
2022-09-30T15:16:26.788Z,99.80
2022-09-30T15:19:18.444Z,99.90
2022-09-30T15:22:09.475Z,99.60
2022-09-30T15:25:02.707Z,99.10
2022-09-30T15:28:35.540Z,97.60
2022-09-30T15:31:36.009Z,98.20
2022-09-30T15:34:24.356Z,96.90
2022-09-30T15:37:17.190Z,98.60
2022-09-30T15:40:22.611Z,97.90
2022-09-30T15:43:11.304Z,97.60
2022-09-30T15:46:01.764Z,97.40
2022-09-30T15:48:50.806Z,97.70
2022-09-30T15:51:40.059Z,97.20
2022-09-30T15:54:31.798Z,97.60
2022-09-30T15:57:34.426Z,97.60
2022-09-30T16:00:35.316Z,97.10
2022-09-30T16:03:26.101Z,97.40
2022-09-30T16:06:16.666Z,97.10
2022-09-30T16:09:08.337Z,97.40
2022-09-30T16:12:08.679Z,97.70
2022-09-30T16:14:58.076Z,97.80
2022-09-30T16:17:46.739Z,97.70
2022-09-30T16:20:34.538Z,97.80
2022-09-30T16:23:29.694Z,98.10
2022-09-30T16:26:24.317Z,97.80
2022-09-30T16:29:15.781Z,98.60
2022-09-30T16:32:05.968Z,98.40
2022-09-30T16:34:53.930Z,98.50
2022-09-30T16:37:43.022Z,98.90
2022-09-30T16:40:33.017Z,99.20
2022-09-30T16:43:21.805Z,99.20
2022-09-30T16:46:09.745Z,99.70
2022-09-30T16:48:57.484Z,99.60
2022-09-30T16:51:45.254Z,99.30
2022-09-30T16:54:32.959Z,99.90
2022-09-30T16:57:22.042Z,99.90
2022-09-30T17:00:12.193Z,99.90
2022-09-30T17:03:00.149Z,99.90
2022-09-30T17:05:53.210Z,99.90
2022-09-30T17:08:41.356Z,99.90
2022-09-30T17:11:31.072Z,99.90
2022-09-30T17:14:20.370Z,99.90
2022-09-30T17:17:13.040Z,99.90
2022-09-30T17:20:01.425Z,99.90
2022-09-30T17:22:49.501Z,99.90
2022-09-30T17:25:40.818Z,99.90
2022-09-30T17:28:28.586Z,99.90
2022-09-30T17:31:17.681Z,99.90
2022-09-30T17:34:07.967Z,99.90
2022-09-30T17:36:56.117Z,99.90
2022-09-30T17:39:43.919Z,99.90
2022-09-30T17:42:49.262Z,99.90
2022-09-30T17:45:37.478Z,99.90
2022-09-30T17:48:26.634Z,99.90
2022-09-30T17:51:14.773Z,99.90
2022-09-30T17:54:02.493Z,99.90
2022-09-30T17:56:50.277Z,99.90
2022-09-30T17:59:37.968Z,99.90
2022-09-30T18:02:25.767Z,99.90
2022-09-30T18:05:15.573Z,99.90
2022-09-30T18:08:03.279Z,99.90
2022-09-30T18:10:51.991Z,99.90
2022-09-30T18:13:41.779Z,99.90
2022-09-30T18:16:30.972Z,99.90
2022-09-30T18:19:19.034Z,99.90
2022-09-30T18:22:08.119Z,99.90
2022-09-30T18:25:13.604Z,99.90
2022-09-30T18:28:01.646Z,99.90
2022-09-30T18:30:49.453Z,99.90
2022-09-30T18:33:37.410Z,99.90
2022-09-30T18:36:26.213Z,99.90
2022-09-30T18:39:15.263Z,99.90
2022-09-30T18:42:03.451Z,99.90
2022-09-30T18:44:55.095Z,99.90
2022-09-30T18:47:49.891Z,99.90
2022-09-30T18:50:54.455Z,99.90
2022-09-30T18:53:42.159Z,99.90
2022-09-30T18:56:32.474Z,99.90
2022-09-30T18:59:23.277Z,99.90
2022-09-30T19:02:14.658Z,99.90
2022-09-30T19:05:02.484Z,99.90
2022-09-30T19:07:50.227Z,99.90
2022-09-30T19:10:39.756Z,99.90
2022-09-30T19:13:28.806Z,99.90
2022-09-30T19:16:19.526Z,99.90
2022-09-30T19:19:08.100Z,99.90
2022-09-30T19:22:00.191Z,99.90
2022-09-30T19:24:48.014Z,99.90
2022-09-30T19:27:38.298Z,99.90
2022-09-30T19:30:27.713Z,99.90
2022-09-30T19:33:16.666Z,99.90
2022-09-30T19:36:14.398Z,99.90
2022-09-30T19:39:11.576Z,99.90
2022-09-30T19:42:04.106Z,99.90
2022-09-30T19:44:52.046Z,99.90
2022-09-30T19:47:41.493Z,99.90
2022-09-30T19:50:30.023Z,99.90
2022-09-30T19:53:27.696Z,99.90
2022-09-30T19:56:19.024Z,99.90
2022-09-30T19:59:07.226Z,99.90
2022-09-30T20:01:55.073Z,99.90
2022-09-30T20:04:45.496Z,99.90
2022-09-30T20:07:34.156Z,99.90
2022-09-30T20:10:23.985Z,99.90
2022-09-30T20:13:11.752Z,99.90
2022-09-30T20:15:59.502Z,99.90
2022-09-30T20:18:47.252Z,99.90
2022-09-30T20:21:37.892Z,99.90
2022-09-30T20:24:25.964Z,99.90
2022-09-30T20:27:13.750Z,99.90
2022-09-30T20:30:01.496Z,99.90
2022-09-30T20:32:49.230Z,99.90
2022-09-30T20:35:37.010Z,99.90
2022-09-30T20:38:26.076Z,99.90
2022-09-30T20:41:13.775Z,99.90
2022-09-30T20:44:02.987Z,99.90
2022-09-30T20:46:50.712Z,99.90
2022-09-30T20:49:38.449Z,99.90
2022-09-30T20:52:26.275Z,99.90
2022-09-30T20:55:15.399Z,99.90
2022-09-30T20:58:03.112Z,99.90
2022-09-30T21:00:51.203Z,99.90
2022-09-30T21:03:39.873Z,99.90
2022-09-30T21:06:28.439Z,99.90
2022-09-30T21:09:16.998Z,99.90
2022-09-30T21:12:08.610Z,99.90
2022-09-30T21:15:00.204Z,99.90
2022-09-30T21:17:47.902Z,99.90
2022-09-30T21:20:35.866Z,99.90
2022-09-30T21:23:23.611Z,99.90
2022-09-30T21:26:12.316Z,99.90
2022-09-30T21:29:02.169Z,99.90
2022-09-30T21:31:49.895Z,99.90
2022-09-30T21:34:38.663Z,99.90
2022-09-30T21:37:26.422Z,99.90
2022-09-30T21:40:14.108Z,99.90
2022-09-30T21:43:01.848Z,99.90
2022-09-30T21:45:57.017Z,99.90
2022-09-30T21:48:45.443Z,99.90
2022-09-30T21:51:34.594Z,99.90
2022-09-30T21:54:23.305Z,99.90
2022-09-30T21:57:11.298Z,99.90
2022-09-30T21:59:59.010Z,99.90
2022-09-30T22:02:48.104Z,99.90
2022-09-30T22:05:36.229Z,99.90
2022-09-30T22:08:24.362Z,99.90
2022-09-30T22:11:12.509Z,99.90
2022-09-30T22:14:00.482Z,99.90
2022-09-30T22:16:48.258Z,99.90
2022-09-30T22:19:37.921Z,99.90
2022-09-30T22:22:26.210Z,99.90
2022-09-30T22:25:14.083Z,99.90
2022-09-30T22:28:02.048Z,99.90
2022-09-30T22:30:49.770Z,99.90
2022-09-30T22:33:55.225Z,99.90
2022-09-30T22:37:01.837Z,99.90
2022-09-30T22:39:49.556Z,99.90
2022-09-30T22:42:37.780Z,99.90
2022-09-30T22:45:25.763Z,99.90
2022-09-30T22:48:13.454Z,99.90
2022-09-30T22:51:01.346Z,99.90
2022-09-30T22:53:50.420Z,99.90
2022-09-30T22:56:38.119Z,99.90
2022-09-30T22:59:26.546Z,99.90
2022-09-30T23:02:15.243Z,99.90
2022-09-30T23:05:03.056Z,99.90
2022-09-30T23:07:53.287Z,99.90
2022-09-30T23:10:48.037Z,99.90
2022-09-30T23:13:35.945Z,99.90
2022-09-30T23:16:23.676Z,99.90
2022-09-30T23:19:11.451Z,99.90
2022-09-30T23:21:59.170Z,99.90
2022-09-30T23:24:46.879Z,99.90
2022-09-30T23:27:36.489Z,99.90
2022-09-30T23:30:24.666Z,99.90
2022-09-30T23:33:12.580Z,99.90
2022-09-30T23:36:00.831Z,99.90
2022-09-30T23:38:48.570Z,99.90
2022-09-30T23:41:36.737Z,99.90
2022-09-30T23:44:28.522Z,99.90
2022-09-30T23:47:19.210Z,99.90
2022-09-30T23:50:07.401Z,99.90
2022-09-30T23:52:55.148Z,99.90
2022-09-30T23:55:42.881Z,99.90
2022-09-30T23:58:31.110Z,99.90
